sensor_id;sensor_type;location;lat;lon;timestamp;temperature;humidity
51837;DHT22;38941;53.254;6.600;2023-12-14T00:00:05;4.70;99.90
51837;DHT22;38941;53.254;6.600;2023-12-14T00:02:08;4.70;99.90
51837;DHT22;38941;53.254;6.600;2023-12-14T00:04:11;4.70;99.90
51837;DHT22;38941;53.254;6.600;2023-12-14T00:06:12;4.60;99.90
51837;DHT22;38941;53.254;6.600;2023-12-14T00:08:13;4.60;99.90
51837;DHT22;38941;53.254;6.600;2023-12-14T00:10:14;4.70;99.90
51837;DHT22;38941;53.254;6.600;2023-12-14T00:12:14;4.60;99.90
51837;DHT22;38941;53.254;6.600;2023-12-14T00:14:15;4.60;99.90
51837;DHT22;38941;53.254;6.600;2023-12-14T00:16:16;4.70;99.90
51837;DHT22;38941;53.254;6.600;2023-12-14T00:18:18;4.60;99.90
51837;DHT22;38941;53.254;6.600;2023-12-14T00:20:18;4.60;99.90
51837;DHT22;38941;53.254;6.600;2023-12-14T00:22:19;4.60;99.90
51837;DHT22;38941;53.254;6.600;2023-12-14T00:24:21;4.60;99.90
51837;DHT22;38941;53.254;6.600;2023-12-14T00:26:21;4.60;99.90
51837;DHT22;38941;53.254;6.600;2023-12-14T00:28:23;4.60;99.90
51837;DHT22;38941;53.254;6.600;2023-12-14T00:30:24;4.60;99.90
51837;DHT22;38941;53.254;6.600;2023-12-14T00:32:25;4.60;99.90
51837;DHT22;38941;53.254;6.600;2023-12-14T00:34:26;4.60;99.90
51837;DHT22;38941;53.254;6.600;2023-12-14T00:36:26;4.60;99.90
51837;DHT22;38941;53.254;6.600;2023-12-14T00:38:28;4.60;99.90
51837;DHT22;38941;53.254;6.600;2023-12-14T00:40:29;4.60;99.90
51837;DHT22;38941;53.254;6.600;2023-12-14T00:42:30;4.60;99.90
51837;DHT22;38941;53.254;6.600;2023-12-14T00:44:31;4.80;99.90
51837;DHT22;38941;53.254;6.600;2023-12-14T00:46:32;5.20;99.90
51837;DHT22;38941;53.254;6.600;2023-12-14T00:48:33;4.60;99.90
51837;DHT22;38941;53.254;6.600;2023-12-14T00:50:33;4.60;99.90
51837;DHT22;38941;53.254;6.600;2023-12-14T00:52:34;4.60;99.90
51837;DHT22;38941;53.254;6.600;2023-12-14T00:54:35;5.10;99.90
51837;DHT22;38941;53.254;6.600;2023-12-14T00:56:35;5.10;99.90
51837;DHT22;38941;53.254;6.600;2023-12-14T00:58:36;4.60;99.90
51837;DHT22;38941;53.254;6.600;2023-12-14T01:00:38;4.60;99.90
51837;DHT22;38941;53.254;6.600;2023-12-14T01:02:38;4.60;99.90
51837;DHT22;38941;53.254;6.600;2023-12-14T01:04:39;4.60;99.90
51837;DHT22;38941;53.254;6.600;2023-12-14T01:06:40;4.60;99.90
51837;DHT22;38941;53.254;6.600;2023-12-14T01:08:40;4.60;99.90
51837;DHT22;38941;53.254;6.600;2023-12-14T01:10:41;4.60;99.90
51837;DHT22;38941;53.254;6.600;2023-12-14T01:12:42;4.60;99.90
51837;DHT22;38941;53.254;6.600;2023-12-14T01:14:43;5.30;99.90
51837;DHT22;38941;53.254;6.600;2023-12-14T01:16:43;4.60;99.90
51837;DHT22;38941;53.254;6.600;2023-12-14T01:18:45;4.60;99.90
51837;DHT22;38941;53.254;6.600;2023-12-14T01:20:46;4.60;99.90
51837;DHT22;38941;53.254;6.600;2023-12-14T01:22:47;4.60;99.90
51837;DHT22;38941;53.254;6.600;2023-12-14T01:24:49;4.60;99.90
51837;DHT22;38941;53.254;6.600;2023-12-14T01:26:50;4.80;99.90
51837;DHT22;38941;53.254;6.600;2023-12-14T01:28:51;4.60;99.90
51837;DHT22;38941;53.254;6.600;2023-12-14T01:30:52;4.60;99.90
51837;DHT22;38941;53.254;6.600;2023-12-14T01:32:53;4.70;99.90
51837;DHT22;38941;53.254;6.600;2023-12-14T01:34:54;4.60;99.90
51837;DHT22;38941;53.254;6.600;2023-12-14T01:36:55;4.60;99.90
51837;DHT22;38941;53.254;6.600;2023-12-14T01:38:56;4.60;99.90
51837;DHT22;38941;53.254;6.600;2023-12-14T01:40:57;4.60;99.90
51837;DHT22;38941;53.254;6.600;2023-12-14T01:43:07;4.60;99.90
51837;DHT22;38941;53.254;6.600;2023-12-14T01:45:08;4.80;99.90
51837;DHT22;38941;53.254;6.600;2023-12-14T01:47:09;4.60;99.90
51837;DHT22;38941;53.254;6.600;2023-12-14T01:49:15;4.60;99.90
51837;DHT22;38941;53.254;6.600;2023-12-14T01:51:15;4.70;99.90
51837;DHT22;38941;53.254;6.600;2023-12-14T01:53:17;5.10;99.90
51837;DHT22;38941;53.254;6.600;2023-12-14T01:55:20;5.00;99.90
51837;DHT22;38941;53.254;6.600;2023-12-14T01:57:24;4.60;99.90
51837;DHT22;38941;53.254;6.600;2023-12-14T01:59:24;5.00;99.90
51837;DHT22;38941;53.254;6.600;2023-12-14T02:01:41;4.50;99.90
51837;DHT22;38941;53.254;6.600;2023-12-14T02:03:50;4.60;99.90
51837;DHT22;38941;53.254;6.600;2023-12-14T02:05:51;4.60;99.90
51837;DHT22;38941;53.254;6.600;2023-12-14T02:07:52;4.60;99.90
51837;DHT22;38941;53.254;6.600;2023-12-14T02:09:52;4.60;99.90
51837;DHT22;38941;53.254;6.600;2023-12-14T02:11:54;4.60;99.90
51837;DHT22;38941;53.254;6.600;2023-12-14T02:13:55;4.60;99.90
51837;DHT22;38941;53.254;6.600;2023-12-14T02:15:55;5.20;99.90
51837;DHT22;38941;53.254;6.600;2023-12-14T02:17:56;4.60;99.90
51837;DHT22;38941;53.254;6.600;2023-12-14T02:19:58;4.60;99.90
51837;DHT22;38941;53.254;6.600;2023-12-14T02:22:00;4.60;99.90
51837;DHT22;38941;53.254;6.600;2023-12-14T02:24:01;4.60;99.90
51837;DHT22;38941;53.254;6.600;2023-12-14T02:26:02;4.60;99.90
51837;DHT22;38941;53.254;6.600;2023-12-14T02:28:02;4.60;99.90
51837;DHT22;38941;53.254;6.600;2023-12-14T02:30:06;4.60;99.90
51837;DHT22;38941;53.254;6.600;2023-12-14T02:32:06;4.60;99.90
51837;DHT22;38941;53.254;6.600;2023-12-14T02:34:07;4.60;99.90
51837;DHT22;38941;53.254;6.600;2023-12-14T02:36:08;4.60;99.90
51837;DHT22;38941;53.254;6.600;2023-12-14T02:38:09;4.60;99.90
51837;DHT22;38941;53.254;6.600;2023-12-14T02:40:11;4.60;99.90
51837;DHT22;38941;53.254;6.600;2023-12-14T02:42:13;4.60;99.90
51837;DHT22;38941;53.254;6.600;2023-12-14T02:44:14;4.60;99.90
51837;DHT22;38941;53.254;6.600;2023-12-14T02:46:15;4.60;99.90
51837;DHT22;38941;53.254;6.600;2023-12-14T02:48:16;4.60;99.90
51837;DHT22;38941;53.254;6.600;2023-12-14T02:50:18;4.60;99.90
51837;DHT22;38941;53.254;6.600;2023-12-14T02:52:19;4.60;99.90
51837;DHT22;38941;53.254;6.600;2023-12-14T02:54:19;4.60;99.90
51837;DHT22;38941;53.254;6.600;2023-12-14T02:56:20;4.80;99.90
51837;DHT22;38941;53.254;6.600;2023-12-14T02:58:23;5.30;99.90
51837;DHT22;38941;53.254;6.600;2023-12-14T03:00:23;4.60;99.90
51837;DHT22;38941;53.254;6.600;2023-12-14T03:02:25;5.50;99.90
51837;DHT22;38941;53.254;6.600;2023-12-14T03:04:26;5.10;99.90
51837;DHT22;38941;53.254;6.600;2023-12-14T03:06:27;4.60;99.90
51837;DHT22;38941;53.254;6.600;2023-12-14T03:08:29;4.60;99.90
51837;DHT22;38941;53.254;6.600;2023-12-14T03:10:30;4.60;99.90
51837;DHT22;38941;53.254;6.600;2023-12-14T03:12:31;4.70;99.90
51837;DHT22;38941;53.254;6.600;2023-12-14T03:14:33;4.80;99.90
51837;DHT22;38941;53.254;6.600;2023-12-14T03:16:35;4.70;99.90
51837;DHT22;38941;53.254;6.600;2023-12-14T03:18:36;4.70;99.90
51837;DHT22;38941;53.254;6.600;2023-12-14T03:20:36;4.70;99.90
51837;DHT22;38941;53.254;6.600;2023-12-14T03:22:37;4.70;99.90
51837;DHT22;38941;53.254;6.600;2023-12-14T03:24:38;5.70;99.90
51837;DHT22;38941;53.254;6.600;2023-12-14T03:26:39;5.10;99.90
51837;DHT22;38941;53.254;6.600;2023-12-14T03:28:41;4.70;99.90
51837;DHT22;38941;53.254;6.600;2023-12-14T03:30:41;5.60;99.90
51837;DHT22;38941;53.254;6.600;2023-12-14T03:32:42;4.70;99.90
51837;DHT22;38941;53.254;6.600;2023-12-14T03:34:44;4.70;99.90
51837;DHT22;38941;53.254;6.600;2023-12-14T03:36:45;4.70;99.90
51837;DHT22;38941;53.254;6.600;2023-12-14T03:38:45;5.00;99.90
51837;DHT22;38941;53.254;6.600;2023-12-14T03:40:46;4.70;99.90
51837;DHT22;38941;53.254;6.600;2023-12-14T03:42:47;5.70;99.90
51837;DHT22;38941;53.254;6.600;2023-12-14T03:44:47;4.70;99.90
51837;DHT22;38941;53.254;6.600;2023-12-14T03:46:48;4.70;99.90
51837;DHT22;38941;53.254;6.600;2023-12-14T03:48:49;4.70;99.90
51837;DHT22;38941;53.254;6.600;2023-12-14T03:50:50;4.60;99.90
51837;DHT22;38941;53.254;6.600;2023-12-14T03:52:50;4.60;99.90
51837;DHT22;38941;53.254;6.600;2023-12-14T03:54:52;4.60;99.90
51837;DHT22;38941;53.254;6.600;2023-12-14T03:56:53;4.60;99.90
51837;DHT22;38941;53.254;6.600;2023-12-14T03:58:53;4.70;99.90
51837;DHT22;38941;53.254;6.600;2023-12-14T04:00:54;4.70;99.90
51837;DHT22;38941;53.254;6.600;2023-12-14T04:02:56;4.60;99.90
51837;DHT22;38941;53.254;6.600;2023-12-14T04:04:56;4.70;99.90
51837;DHT22;38941;53.254;6.600;2023-12-14T04:06:57;4.60;99.90
51837;DHT22;38941;53.254;6.600;2023-12-14T04:08:58;4.60;99.90
51837;DHT22;38941;53.254;6.600;2023-12-14T04:10:58;4.60;99.90
51837;DHT22;38941;53.254;6.600;2023-12-14T04:12:59;4.80;99.90
51837;DHT22;38941;53.254;6.600;2023-12-14T04:15:07;4.60;99.90
51837;DHT22;38941;53.254;6.600;2023-12-14T04:17:08;4.60;99.90
51837;DHT22;38941;53.254;6.600;2023-12-14T04:19:08;4.60;99.90
51837;DHT22;38941;53.254;6.600;2023-12-14T04:21:11;4.60;99.90
51837;DHT22;38941;53.254;6.600;2023-12-14T04:23:13;4.60;99.90
51837;DHT22;38941;53.254;6.600;2023-12-14T04:25:14;4.60;99.90
51837;DHT22;38941;53.254;6.600;2023-12-14T04:27:15;4.90;99.90
51837;DHT22;38941;53.254;6.600;2023-12-14T04:29:17;5.30;99.90
51837;DHT22;38941;53.254;6.600;2023-12-14T04:31:18;4.60;99.90
51837;DHT22;38941;53.254;6.600;2023-12-14T04:33:20;4.60;99.90
51837;DHT22;38941;53.254;6.600;2023-12-14T04:35:20;5.20;99.90
51837;DHT22;38941;53.254;6.600;2023-12-14T04:37:22;4.60;99.90
51837;DHT22;38941;53.254;6.600;2023-12-14T04:39:26;4.80;99.90
51837;DHT22;38941;53.254;6.600;2023-12-14T04:41:27;4.60;99.90
51837;DHT22;38941;53.254;6.600;2023-12-14T04:43:27;5.40;99.90
51837;DHT22;38941;53.254;6.600;2023-12-14T04:45:30;4.60;99.90
51837;DHT22;38941;53.254;6.600;2023-12-14T04:47:31;4.70;99.90
51837;DHT22;38941;53.254;6.600;2023-12-14T04:49:33;4.60;99.90
51837;DHT22;38941;53.254;6.600;2023-12-14T04:51:34;4.60;99.90
51837;DHT22;38941;53.254;6.600;2023-12-14T04:53:35;5.10;99.90
51837;DHT22;38941;53.254;6.600;2023-12-14T04:55:36;4.60;99.90
51837;DHT22;38941;53.254;6.600;2023-12-14T04:57:37;4.60;99.90
51837;DHT22;38941;53.254;6.600;2023-12-14T04:59:41;4.60;99.90
51837;DHT22;38941;53.254;6.600;2023-12-14T05:01:42;4.70;99.90
51837;DHT22;38941;53.254;6.600;2023-12-14T05:03:44;4.60;99.90
51837;DHT22;38941;53.254;6.600;2023-12-14T05:05:45;4.60;99.90
51837;DHT22;38941;53.254;6.600;2023-12-14T05:07:47;4.60;99.90
51837;DHT22;38941;53.254;6.600;2023-12-14T05:09:48;4.60;99.90
51837;DHT22;38941;53.254;6.600;2023-12-14T05:11:49;4.60;99.90
51837;DHT22;38941;53.254;6.600;2023-12-14T05:13:50;4.60;99.90
51837;DHT22;38941;53.254;6.600;2023-12-14T05:15:52;4.60;99.90
51837;DHT22;38941;53.254;6.600;2023-12-14T05:17:52;4.60;99.90
51837;DHT22;38941;53.254;6.600;2023-12-14T05:19:53;4.60;99.90
51837;DHT22;38941;53.254;6.600;2023-12-14T05:21:53;4.60;99.90
51837;DHT22;38941;53.254;6.600;2023-12-14T05:23:55;4.60;99.90
51837;DHT22;38941;53.254;6.600;2023-12-14T05:25:56;4.60;99.90
51837;DHT22;38941;53.254;6.600;2023-12-14T05:27:58;5.30;99.90
51837;DHT22;38941;53.254;6.600;2023-12-14T05:29:58;5.60;99.90
51837;DHT22;38941;53.254;6.600;2023-12-14T05:31:59;4.60;99.90
51837;DHT22;38941;53.254;6.600;2023-12-14T05:34:00;4.60;99.90
51837;DHT22;38941;53.254;6.600;2023-12-14T05:36:00;4.70;99.90
51837;DHT22;38941;53.254;6.600;2023-12-14T05:38:01;4.70;99.90
51837;DHT22;38941;53.254;6.600;2023-12-14T05:40:02;4.70;99.90
51837;DHT22;38941;53.254;6.600;2023-12-14T05:42:03;4.70;99.90
51837;DHT22;38941;53.254;6.600;2023-12-14T05:44:04;4.70;99.90
51837;DHT22;38941;53.254;6.600;2023-12-14T05:46:04;4.70;99.90
51837;DHT22;38941;53.254;6.600;2023-12-14T05:48:06;4.70;99.90
51837;DHT22;38941;53.254;6.600;2023-12-14T05:50:07;4.60;99.90
51837;DHT22;38941;53.254;6.600;2023-12-14T05:52:10;4.60;99.90
51837;DHT22;38941;53.254;6.600;2023-12-14T05:54:11;4.60;99.90
51837;DHT22;38941;53.254;6.600;2023-12-14T05:56:13;4.60;99.90
51837;DHT22;38941;53.254;6.600;2023-12-14T05:58:14;4.70;99.90
51837;DHT22;38941;53.254;6.600;2023-12-14T06:00:14;4.70;99.90
51837;DHT22;38941;53.254;6.600;2023-12-14T06:02:16;4.60;99.90
51837;DHT22;38941;53.254;6.600;2023-12-14T06:04:17;4.60;99.90
51837;DHT22;38941;53.254;6.600;2023-12-14T06:06:18;4.60;99.90
51837;DHT22;38941;53.254;6.600;2023-12-14T06:08:20;4.60;99.90
51837;DHT22;38941;53.254;6.600;2023-12-14T06:10:21;4.60;99.90
51837;DHT22;38941;53.254;6.600;2023-12-14T06:12:22;4.60;99.90
51837;DHT22;38941;53.254;6.600;2023-12-14T06:14:23;4.60;99.90
51837;DHT22;38941;53.254;6.600;2023-12-14T06:16:24;4.60;99.90
51837;DHT22;38941;53.254;6.600;2023-12-14T06:18:25;4.60;99.90
51837;DHT22;38941;53.254;6.600;2023-12-14T06:20:26;4.60;99.90
51837;DHT22;38941;53.254;6.600;2023-12-14T06:22:27;4.70;99.90
51837;DHT22;38941;53.254;6.600;2023-12-14T06:24:27;4.70;99.90
51837;DHT22;38941;53.254;6.600;2023-12-14T06:26:29;4.70;99.90
51837;DHT22;38941;53.254;6.600;2023-12-14T06:28:30;4.60;99.90
51837;DHT22;38941;53.254;6.600;2023-12-14T06:30:31;4.70;99.90
51837;DHT22;38941;53.254;6.600;2023-12-14T06:32:32;4.70;99.90
51837;DHT22;38941;53.254;6.600;2023-12-14T06:34:32;4.60;99.90
51837;DHT22;38941;53.254;6.600;2023-12-14T06:36:34;5.00;99.90
51837;DHT22;38941;53.254;6.600;2023-12-14T06:38:34;4.60;99.90
51837;DHT22;38941;53.254;6.600;2023-12-14T06:40:37;4.70;99.90
51837;DHT22;38941;53.254;6.600;2023-12-14T06:42:37;4.70;99.90
51837;DHT22;38941;53.254;6.600;2023-12-14T06:44:39;4.70;99.90
51837;DHT22;38941;53.254;6.600;2023-12-14T06:46:40;4.60;99.90
51837;DHT22;38941;53.254;6.600;2023-12-14T06:48:40;4.70;99.90
51837;DHT22;38941;53.254;6.600;2023-12-14T06:50:42;4.70;99.90
51837;DHT22;38941;53.254;6.600;2023-12-14T06:52:43;4.60;99.90
51837;DHT22;38941;53.254;6.600;2023-12-14T06:54:43;4.70;99.90
51837;DHT22;38941;53.254;6.600;2023-12-14T06:56:44;4.90;99.90
51837;DHT22;38941;53.254;6.600;2023-12-14T06:58:45;4.70;99.90
51837;DHT22;38941;53.254;6.600;2023-12-14T07:00:46;4.80;99.90
51837;DHT22;38941;53.254;6.600;2023-12-14T07:02:48;4.70;99.90
51837;DHT22;38941;53.254;6.600;2023-12-14T07:04:49;4.70;99.90
51837;DHT22;38941;53.254;6.600;2023-12-14T07:06:50;4.70;99.90
51837;DHT22;38941;53.254;6.600;2023-12-14T07:08:52;4.70;99.90
51837;DHT22;38941;53.254;6.600;2023-12-14T07:10:52;5.60;99.90
51837;DHT22;38941;53.254;6.600;2023-12-14T07:12:54;4.70;99.90
51837;DHT22;38941;53.254;6.600;2023-12-14T07:14:55;4.70;99.90
51837;DHT22;38941;53.254;6.600;2023-12-14T07:16:56;5.30;99.90
51837;DHT22;38941;53.254;6.600;2023-12-14T07:18:57;4.70;99.90
51837;DHT22;38941;53.254;6.600;2023-12-14T07:20:59;4.60;99.90
51837;DHT22;38941;53.254;6.600;2023-12-14T07:22:59;4.60;99.90
51837;DHT22;38941;53.254;6.600;2023-12-14T07:25:00;4.70;99.90
51837;DHT22;38941;53.254;6.600;2023-12-14T07:27:02;4.70;99.90
51837;DHT22;38941;53.254;6.600;2023-12-14T07:29:02;4.70;99.90
51837;DHT22;38941;53.254;6.600;2023-12-14T07:31:03;4.70;99.90
51837;DHT22;38941;53.254;6.600;2023-12-14T07:33:05;5.30;99.90
51837;DHT22;38941;53.254;6.600;2023-12-14T07:35:06;4.80;99.90
51837;DHT22;38941;53.254;6.600;2023-12-14T07:37:07;4.60;99.90
51837;DHT22;38941;53.254;6.600;2023-12-14T07:39:07;4.60;99.90
51837;DHT22;38941;53.254;6.600;2023-12-14T07:41:10;5.30;99.90
51837;DHT22;38941;53.254;6.600;2023-12-14T07:43:11;4.60;99.90
51837;DHT22;38941;53.254;6.600;2023-12-14T07:45:12;4.70;99.90
51837;DHT22;38941;53.254;6.600;2023-12-14T07:47:12;5.10;99.90
51837;DHT22;38941;53.254;6.600;2023-12-14T07:49:15;4.70;99.90
51837;DHT22;38941;53.254;6.600;2023-12-14T07:51:15;4.80;99.90
51837;DHT22;38941;53.254;6.600;2023-12-14T07:53:16;4.60;99.90
51837;DHT22;38941;53.254;6.600;2023-12-14T07:55:17;5.20;99.90
51837;DHT22;38941;53.254;6.600;2023-12-14T07:57:19;5.50;99.90
51837;DHT22;38941;53.254;6.600;2023-12-14T07:59:20;4.60;99.90
51837;DHT22;38941;53.254;6.600;2023-12-14T08:01:21;4.60;99.90
51837;DHT22;38941;53.254;6.600;2023-12-14T08:03:22;4.60;99.90
51837;DHT22;38941;53.254;6.600;2023-12-14T08:05:22;4.70;99.90
51837;DHT22;38941;53.254;6.600;2023-12-14T08:07:24;5.40;99.90
51837;DHT22;38941;53.254;6.600;2023-12-14T08:09:29;4.60;99.90
51837;DHT22;38941;53.254;6.600;2023-12-14T08:11:29;4.60;99.90
51837;DHT22;38941;53.254;6.600;2023-12-14T08:13:31;4.70;99.90
51837;DHT22;38941;53.254;6.600;2023-12-14T08:15:31;5.80;99.90
51837;DHT22;38941;53.254;6.600;2023-12-14T08:17:32;4.70;99.90
51837;DHT22;38941;53.254;6.600;2023-12-14T08:19:33;4.80;99.90
51837;DHT22;38941;53.254;6.600;2023-12-14T08:21:34;4.70;99.90
51837;DHT22;38941;53.254;6.600;2023-12-14T08:23:36;4.70;99.90
51837;DHT22;38941;53.254;6.600;2023-12-14T08:25:38;4.70;99.90
51837;DHT22;38941;53.254;6.600;2023-12-14T08:27:38;4.70;99.90
51837;DHT22;38941;53.254;6.600;2023-12-14T08:29:39;4.70;99.90
51837;DHT22;38941;53.254;6.600;2023-12-14T08:31:40;4.70;99.90
51837;DHT22;38941;53.254;6.600;2023-12-14T08:33:42;4.80;99.90
51837;DHT22;38941;53.254;6.600;2023-12-14T08:35:43;5.60;99.90
51837;DHT22;38941;53.254;6.600;2023-12-14T08:37:44;4.70;99.90
51837;DHT22;38941;53.254;6.600;2023-12-14T08:39:45;5.00;99.90
51837;DHT22;38941;53.254;6.600;2023-12-14T08:41:47;4.70;99.90
51837;DHT22;38941;53.254;6.600;2023-12-14T08:43:48;4.70;99.90
51837;DHT22;38941;53.254;6.600;2023-12-14T08:45:50;4.70;99.90
51837;DHT22;38941;53.254;6.600;2023-12-14T08:47:52;5.20;99.90
51837;DHT22;38941;53.254;6.600;2023-12-14T08:49:53;5.60;99.90
51837;DHT22;38941;53.254;6.600;2023-12-14T08:51:55;4.80;99.90
51837;DHT22;38941;53.254;6.600;2023-12-14T08:53:55;4.80;99.90
51837;DHT22;38941;53.254;6.600;2023-12-14T08:55:57;5.60;99.90
51837;DHT22;38941;53.254;6.600;2023-12-14T08:57:58;5.10;99.90
51837;DHT22;38941;53.254;6.600;2023-12-14T08:59:59;4.80;99.90
51837;DHT22;38941;53.254;6.600;2023-12-14T09:01:59;4.90;99.90
51837;DHT22;38941;53.254;6.600;2023-12-14T09:04:01;4.90;99.90
51837;DHT22;38941;53.254;6.600;2023-12-14T09:06:03;5.50;99.90
51837;DHT22;38941;53.254;6.600;2023-12-14T09:08:06;4.90;99.90
51837;DHT22;38941;53.254;6.600;2023-12-14T09:10:08;5.30;99.90
51837;DHT22;38941;53.254;6.600;2023-12-14T09:12:09;5.00;99.90
51837;DHT22;38941;53.254;6.600;2023-12-14T09:14:10;5.00;99.90
51837;DHT22;38941;53.254;6.600;2023-12-14T09:16:11;5.00;99.90
51837;DHT22;38941;53.254;6.600;2023-12-14T09:18:13;5.00;99.90
51837;DHT22;38941;53.254;6.600;2023-12-14T09:20:14;5.00;99.90
51837;DHT22;38941;53.254;6.600;2023-12-14T09:22:14;5.40;99.90
51837;DHT22;38941;53.254;6.600;2023-12-14T09:24:15;5.00;99.90
51837;DHT22;38941;53.254;6.600;2023-12-14T09:26:17;5.00;99.90
51837;DHT22;38941;53.254;6.600;2023-12-14T09:28:17;5.30;99.90
51837;DHT22;38941;53.254;6.600;2023-12-14T09:30:19;5.00;99.90
51837;DHT22;38941;53.254;6.600;2023-12-14T09:32:20;5.10;99.90
51837;DHT22;38941;53.254;6.600;2023-12-14T09:34:21;5.10;99.90
51837;DHT22;38941;53.254;6.600;2023-12-14T09:36:23;5.00;99.90
51837;DHT22;38941;53.254;6.600;2023-12-14T09:38:25;6.10;99.90
51837;DHT22;38941;53.254;6.600;2023-12-14T09:40:27;5.80;99.90
51837;DHT22;38941;53.254;6.600;2023-12-14T09:42:27;5.40;99.90
51837;DHT22;38941;53.254;6.600;2023-12-14T09:44:28;5.40;99.90
51837;DHT22;38941;53.254;6.600;2023-12-14T09:46:30;5.10;99.90
51837;DHT22;38941;53.254;6.600;2023-12-14T09:48:32;5.70;99.90
51837;DHT22;38941;53.254;6.600;2023-12-14T09:50:34;5.60;99.90
51837;DHT22;38941;53.254;6.600;2023-12-14T09:52:35;5.10;99.90
51837;DHT22;38941;53.254;6.600;2023-12-14T09:54:37;5.10;99.90
51837;DHT22;38941;53.254;6.600;2023-12-14T09:56:46;5.10;99.90
51837;DHT22;38941;53.254;6.600;2023-12-14T09:58:47;5.10;99.90
51837;DHT22;38941;53.254;6.600;2023-12-14T10:00:48;5.10;99.90
51837;DHT22;38941;53.254;6.600;2023-12-14T10:02:49;5.10;99.90
51837;DHT22;38941;53.254;6.600;2023-12-14T10:04:50;6.30;99.90
51837;DHT22;38941;53.254;6.600;2023-12-14T10:06:51;5.70;99.90
51837;DHT22;38941;53.254;6.600;2023-12-14T10:08:55;5.40;99.90
51837;DHT22;38941;53.254;6.600;2023-12-14T10:11:01;5.60;99.90
51837;DHT22;38941;53.254;6.600;2023-12-14T10:13:02;5.70;99.90
51837;DHT22;38941;53.254;6.600;2023-12-14T10:15:04;5.20;99.90
51837;DHT22;38941;53.254;6.600;2023-12-14T10:17:21;5.20;99.90
51837;DHT22;38941;53.254;6.600;2023-12-14T10:19:25;5.20;99.90
51837;DHT22;38941;53.254;6.600;2023-12-14T10:21:27;5.20;99.90
51837;DHT22;38941;53.254;6.600;2023-12-14T10:23:29;5.20;99.90
51837;DHT22;38941;53.254;6.600;2023-12-14T10:25:31;5.20;99.90
51837;DHT22;38941;53.254;6.600;2023-12-14T10:27:32;5.20;99.90
51837;DHT22;38941;53.254;6.600;2023-12-14T10:29:33;6.20;99.90
51837;DHT22;38941;53.254;6.600;2023-12-14T10:31:38;5.20;99.90
51837;DHT22;38941;53.254;6.600;2023-12-14T10:33:39;5.20;99.90
51837;DHT22;38941;53.254;6.600;2023-12-14T10:35:40;5.30;99.90
51837;DHT22;38941;53.254;6.600;2023-12-14T10:37:43;5.50;99.90
51837;DHT22;38941;53.254;6.600;2023-12-14T10:39:46;6.20;99.90
51837;DHT22;38941;53.254;6.600;2023-12-14T10:41:47;5.80;99.90
51837;DHT22;38941;53.254;6.600;2023-12-14T10:43:55;5.70;99.90
51837;DHT22;38941;53.254;6.600;2023-12-14T10:45:56;5.20;99.90
51837;DHT22;38941;53.254;6.600;2023-12-14T10:47:59;6.20;99.90
51837;DHT22;38941;53.254;6.600;2023-12-14T10:50:00;5.90;99.90
51837;DHT22;38941;53.254;6.600;2023-12-14T10:52:02;5.30;99.90
51837;DHT22;38941;53.254;6.600;2023-12-14T10:54:03;5.30;99.90
51837;DHT22;38941;53.254;6.600;2023-12-14T10:56:07;5.40;99.90
51837;DHT22;38941;53.254;6.600;2023-12-14T10:58:11;5.40;99.90
51837;DHT22;38941;53.254;6.600;2023-12-14T11:00:12;5.50;99.90
51837;DHT22;38941;53.254;6.600;2023-12-14T11:02:13;5.50;99.90
51837;DHT22;38941;53.254;6.600;2023-12-14T11:04:15;5.70;99.90
51837;DHT22;38941;53.254;6.600;2023-12-14T11:06:26;6.20;99.90
51837;DHT22;38941;53.254;6.600;2023-12-14T11:08:29;6.00;99.90
51837;DHT22;38941;53.254;6.600;2023-12-14T11:10:52;5.70;99.90
51837;DHT22;38941;53.254;6.600;2023-12-14T11:13:04;5.90;99.90
51837;DHT22;38941;53.254;6.600;2023-12-14T11:15:06;5.70;99.90
51837;DHT22;38941;53.254;6.600;2023-12-14T11:17:09;5.80;99.90
51837;DHT22;38941;53.254;6.600;2023-12-14T11:21:27;5.80;99.90
51837;DHT22;38941;53.254;6.600;2023-12-14T11:23:38;5.70;99.90
51837;DHT22;38941;53.254;6.600;2023-12-14T11:25:43;5.70;99.90
51837;DHT22;38941;53.254;6.600;2023-12-14T11:27:43;6.20;99.90
51837;DHT22;38941;53.254;6.600;2023-12-14T11:29:47;5.80;99.90
51837;DHT22;38941;53.254;6.600;2023-12-14T11:31:48;6.10;99.90
51837;DHT22;38941;53.254;6.600;2023-12-14T11:33:48;5.80;99.90
51837;DHT22;38941;53.254;6.600;2023-12-14T11:35:52;7.00;99.90
51837;DHT22;38941;53.254;6.600;2023-12-14T11:37:53;5.80;99.90
51837;DHT22;38941;53.254;6.600;2023-12-14T11:39:54;5.90;99.90
51837;DHT22;38941;53.254;6.600;2023-12-14T11:42:05;5.90;99.90
51837;DHT22;38941;53.254;6.600;2023-12-14T11:44:09;5.90;99.90
51837;DHT22;38941;53.254;6.600;2023-12-14T11:46:11;6.00;99.90
51837;DHT22;38941;53.254;6.600;2023-12-14T11:48:12;6.00;99.90
51837;DHT22;38941;53.254;6.600;2023-12-14T11:50:15;5.70;99.90
51837;DHT22;38941;53.254;6.600;2023-12-14T11:52:18;6.10;99.90
51837;DHT22;38941;53.254;6.600;2023-12-14T11:54:19;6.10;99.90
51837;DHT22;38941;53.254;6.600;2023-12-14T11:56:20;6.60;99.90
51837;DHT22;38941;53.254;6.600;2023-12-14T11:58:24;6.20;99.90
51837;DHT22;38941;53.254;6.600;2023-12-14T12:00:29;6.50;99.90
51837;DHT22;38941;53.254;6.600;2023-12-14T12:02:30;6.00;99.90
51837;DHT22;38941;53.254;6.600;2023-12-14T12:04:31;6.00;99.90
51837;DHT22;38941;53.254;6.600;2023-12-14T12:06:32;6.10;99.90
51837;DHT22;38941;53.254;6.600;2023-12-14T12:08:40;6.10;99.90
51837;DHT22;38941;53.254;6.600;2023-12-14T12:10:43;6.20;99.90
51837;DHT22;38941;53.254;6.600;2023-12-14T12:12:43;6.70;99.90
51837;DHT22;38941;53.254;6.600;2023-12-14T12:14:44;6.10;99.90
51837;DHT22;38941;53.254;6.600;2023-12-14T12:16:45;6.70;99.90
51837;DHT22;38941;53.254;6.600;2023-12-14T12:18:46;6.20;99.90
51837;DHT22;38941;53.254;6.600;2023-12-14T12:20:47;6.70;99.90
51837;DHT22;38941;53.254;6.600;2023-12-14T12:22:48;6.80;99.90
51837;DHT22;38941;53.254;6.600;2023-12-14T12:24:48;6.30;99.90
51837;DHT22;38941;53.254;6.600;2023-12-14T12:26:49;6.50;99.90
51837;DHT22;38941;53.254;6.600;2023-12-14T12:28:50;6.70;99.90
51837;DHT22;38941;53.254;6.600;2023-12-14T12:30:51;6.30;99.90
51837;DHT22;38941;53.254;6.600;2023-12-14T12:32:52;6.70;99.90
51837;DHT22;38941;53.254;6.600;2023-12-14T12:34:54;6.60;99.90
51837;DHT22;38941;53.254;6.600;2023-12-14T12:36:55;6.60;99.90
51837;DHT22;38941;53.254;6.600;2023-12-14T12:38:58;7.00;99.90
51837;DHT22;38941;53.254;6.600;2023-12-14T12:40:59;6.60;99.90
51837;DHT22;38941;53.254;6.600;2023-12-14T12:43:01;6.40;99.90
51837;DHT22;38941;53.254;6.600;2023-12-14T12:45:03;6.20;99.90
51837;DHT22;38941;53.254;6.600;2023-12-14T12:47:04;6.20;99.90
51837;DHT22;38941;53.254;6.600;2023-12-14T12:49:05;6.10;99.90
51837;DHT22;38941;53.254;6.600;2023-12-14T12:51:06;6.50;99.90
51837;DHT22;38941;53.254;6.600;2023-12-14T12:53:07;6.30;99.90
51837;DHT22;38941;53.254;6.600;2023-12-14T12:55:08;6.00;99.90
51837;DHT22;38941;53.254;6.600;2023-12-14T12:57:09;6.10;99.90
51837;DHT22;38941;53.254;6.600;2023-12-14T12:59:11;6.50;99.90
51837;DHT22;38941;53.254;6.600;2023-12-14T13:01:12;6.10;99.90